KSSI

McKinnon St Simons Island Airport

Brunswick, Georgia, USA
METAR KSSI 210453Z AUTO 23004KT 10SM CLR 26/22 A3008 RMK AO2 SLP188 T02610222 403280244 TSNO
Observed Flight Rules
Aug-21 @ 04:53 UTC (9 hours ago) Visual Flight Rules
Wind Visibility Clouds
230° at 4 knots 10 miles
  • Clear skies
Temperatures Readings
Current 26°C / 79°F
Dewpoint 22°C / 72°F
Humidity 79%
Altimeter 30.08" Hg
Pressure 1018.8 hPa
Elevation 6
METAR KSSI 210453Z AUTO 23004KT 10SM CLR 26/22 A3008 RMK AO2 SLP188 T02610222 403280244 TSNO
Observed Flight Rules
Aug-21 @ 04:53 UTC
(9 hours ago)
VFR
Wind Visibility
230° at 4 knots 10 miles
Clouds
  • Clear skies
Temperature Dewpoint
26°C / 79°F 22°C / 72°F
Humidity Altimeter Pressure
79% 30.08" Hg 1018.8 hPa